sensor_id;sensor_type;location;lat;lon;timestamp;temperature;humidity
85456;DHT22;75846;43.732;10.404;2024-03-08T00:00:42;8.20;99.90
85456;DHT22;75846;43.732;10.404;2024-03-08T00:03:10;8.10;99.90
85456;DHT22;75846;43.732;10.404;2024-03-08T00:05:37;8.00;99.90
85456;DHT22;75846;43.732;10.404;2024-03-08T00:08:05;8.00;99.90
85456;DHT22;75846;43.732;10.404;2024-03-08T00:10:37;8.10;99.90
85456;DHT22;75846;43.732;10.404;2024-03-08T00:13:04;8.10;99.90
85456;DHT22;75846;43.732;10.404;2024-03-08T00:15:32;8.10;99.90
85456;DHT22;75846;43.732;10.404;2024-03-08T00:18:00;8.10;99.90
85456;DHT22;75846;43.732;10.404;2024-03-08T00:20:27;8.00;99.90
85456;DHT22;75846;43.732;10.404;2024-03-08T00:25:25;8.00;99.90
85456;DHT22;75846;43.732;10.404;2024-03-08T00:27:55;8.00;99.90
85456;DHT22;75846;43.732;10.404;2024-03-08T00:30:25;8.00;99.90
85456;DHT22;75846;43.732;10.404;2024-03-08T00:32:52;8.00;99.90
85456;DHT22;75846;43.732;10.404;2024-03-08T00:35:19;8.00;99.90
85456;DHT22;75846;43.732;10.404;2024-03-08T00:37:49;8.10;99.90
85456;DHT22;75846;43.732;10.404;2024-03-08T00:40:16;8.00;99.90
85456;DHT22;75846;43.732;10.404;2024-03-08T00:42:45;8.00;99.90
85456;DHT22;75846;43.732;10.404;2024-03-08T00:45:14;8.10;99.90
85456;DHT22;75846;43.732;10.404;2024-03-08T00:47:42;8.00;99.90
85456;DHT22;75846;43.732;10.404;2024-03-08T00:50:10;8.00;99.90
85456;DHT22;75846;43.732;10.404;2024-03-08T00:52:38;8.00;99.90
85456;DHT22;75846;43.732;10.404;2024-03-08T00:55:06;8.00;99.90
85456;DHT22;75846;43.732;10.404;2024-03-08T00:57:36;8.00;99.90
85456;DHT22;75846;43.732;10.404;2024-03-08T01:00:05;8.00;99.90
85456;DHT22;75846;43.732;10.404;2024-03-08T01:02:39;8.00;99.90
85456;DHT22;75846;43.732;10.404;2024-03-08T01:05:07;8.00;99.90
85456;DHT22;75846;43.732;10.404;2024-03-08T01:07:34;7.90;99.90
85456;DHT22;75846;43.732;10.404;2024-03-08T01:10:02;7.90;99.90
85456;DHT22;75846;43.732;10.404;2024-03-08T01:12:29;7.90;99.90
85456;DHT22;75846;43.732;10.404;2024-03-08T01:14:57;7.90;99.90
85456;DHT22;75846;43.732;10.404;2024-03-08T01:17:27;7.80;99.90
85456;DHT22;75846;43.732;10.404;2024-03-08T01:19:56;7.80;99.90
85456;DHT22;75846;43.732;10.404;2024-03-08T01:22:24;7.80;99.90
85456;DHT22;75846;43.732;10.404;2024-03-08T01:24:54;7.80;99.90
85456;DHT22;75846;43.732;10.404;2024-03-08T01:27:21;7.70;99.90
85456;DHT22;75846;43.732;10.404;2024-03-08T01:29:48;7.50;99.90
85456;DHT22;75846;43.732;10.404;2024-03-08T01:32:16;7.50;99.90
85456;DHT22;75846;43.732;10.404;2024-03-08T01:34:45;7.60;99.90
85456;DHT22;75846;43.732;10.404;2024-03-08T01:37:14;7.50;99.90
85456;DHT22;75846;43.732;10.404;2024-03-08T01:39:41;7.40;99.90
85456;DHT22;75846;43.732;10.404;2024-03-08T01:42:08;7.40;99.90
85456;DHT22;75846;43.732;10.404;2024-03-08T01:44:37;7.40;99.90
85456;DHT22;75846;43.732;10.404;2024-03-08T01:47:05;7.40;99.90
85456;DHT22;75846;43.732;10.404;2024-03-08T01:49:33;7.50;99.90
85456;DHT22;75846;43.732;10.404;2024-03-08T01:52:00;7.40;99.90
85456;DHT22;75846;43.732;10.404;2024-03-08T01:54:29;7.40;99.90
85456;DHT22;75846;43.732;10.404;2024-03-08T01:56:57;7.40;99.90
85456;DHT22;75846;43.732;10.404;2024-03-08T01:59:25;7.40;99.90
85456;DHT22;75846;43.732;10.404;2024-03-08T02:01:55;7.30;99.90
85456;DHT22;75846;43.732;10.404;2024-03-08T02:04:22;7.20;99.90
85456;DHT22;75846;43.732;10.404;2024-03-08T02:06:50;7.20;99.90
85456;DHT22;75846;43.732;10.404;2024-03-08T02:09:17;7.20;99.90
85456;DHT22;75846;43.732;10.404;2024-03-08T02:11:46;7.20;99.90
85456;DHT22;75846;43.732;10.404;2024-03-08T02:14:13;7.20;99.90
85456;DHT22;75846;43.732;10.404;2024-03-08T02:16:41;7.10;99.90
85456;DHT22;75846;43.732;10.404;2024-03-08T02:19:08;7.20;99.90
85456;DHT22;75846;43.732;10.404;2024-03-08T02:21:37;7.30;99.90
85456;DHT22;75846;43.732;10.404;2024-03-08T02:24:04;7.30;99.90
85456;DHT22;75846;43.732;10.404;2024-03-08T02:26:32;7.40;99.90
85456;DHT22;75846;43.732;10.404;2024-03-08T02:29:00;7.40;99.90
85456;DHT22;75846;43.732;10.404;2024-03-08T02:31:28;7.40;99.90
85456;DHT22;75846;43.732;10.404;2024-03-08T02:33:55;7.30;99.90
85456;DHT22;75846;43.732;10.404;2024-03-08T02:36:22;7.30;99.90
85456;DHT22;75846;43.732;10.404;2024-03-08T02:38:51;7.20;99.90
85456;DHT22;75846;43.732;10.404;2024-03-08T02:41:18;7.20;99.90
85456;DHT22;75846;43.732;10.404;2024-03-08T02:43:45;7.20;99.90
85456;DHT22;75846;43.732;10.404;2024-03-08T02:46:13;7.20;99.90
85456;DHT22;75846;43.732;10.404;2024-03-08T02:48:41;7.20;99.90
85456;DHT22;75846;43.732;10.404;2024-03-08T02:51:08;7.20;99.90
85456;DHT22;75846;43.732;10.404;2024-03-08T02:53:36;7.20;99.90
85456;DHT22;75846;43.732;10.404;2024-03-08T02:56:05;7.10;99.90
85456;DHT22;75846;43.732;10.404;2024-03-08T02:58:34;7.10;99.90
85456;DHT22;75846;43.732;10.404;2024-03-08T03:01:03;7.10;99.90
85456;DHT22;75846;43.732;10.404;2024-03-08T03:03:30;7.00;99.90
85456;DHT22;75846;43.732;10.404;2024-03-08T03:05:58;6.90;99.90
85456;DHT22;75846;43.732;10.404;2024-03-08T03:08:25;6.90;99.90
85456;DHT22;75846;43.732;10.404;2024-03-08T03:10:52;6.90;99.90
85456;DHT22;75846;43.732;10.404;2024-03-08T03:13:24;6.90;99.90
85456;DHT22;75846;43.732;10.404;2024-03-08T03:15:51;6.90;99.90
85456;DHT22;75846;43.732;10.404;2024-03-08T03:18:18;6.90;99.90
85456;DHT22;75846;43.732;10.404;2024-03-08T03:20:49;6.80;99.90
85456;DHT22;75846;43.732;10.404;2024-03-08T03:23:16;6.90;99.90
85456;DHT22;75846;43.732;10.404;2024-03-08T03:25:46;6.80;99.90
85456;DHT22;75846;43.732;10.404;2024-03-08T03:28:13;6.80;99.90
85456;DHT22;75846;43.732;10.404;2024-03-08T03:30:46;6.70;99.90
85456;DHT22;75846;43.732;10.404;2024-03-08T03:33:13;6.80;99.90
85456;DHT22;75846;43.732;10.404;2024-03-08T03:35:42;6.80;99.90
85456;DHT22;75846;43.732;10.404;2024-03-08T03:38:09;6.70;99.90
85456;DHT22;75846;43.732;10.404;2024-03-08T03:40:38;6.70;99.90
85456;DHT22;75846;43.732;10.404;2024-03-08T03:43:06;6.70;99.90
85456;DHT22;75846;43.732;10.404;2024-03-08T03:45:33;6.70;99.90
85456;DHT22;75846;43.732;10.404;2024-03-08T03:48:03;6.60;99.90
85456;DHT22;75846;43.732;10.404;2024-03-08T03:50:32;6.60;99.90
85456;DHT22;75846;43.732;10.404;2024-03-08T03:53:00;6.60;99.90
85456;DHT22;75846;43.732;10.404;2024-03-08T03:55:27;6.60;99.90
85456;DHT22;75846;43.732;10.404;2024-03-08T03:57:55;6.60;99.90
85456;DHT22;75846;43.732;10.404;2024-03-08T04:00:24;6.60;99.90
85456;DHT22;75846;43.732;10.404;2024-03-08T04:02:52;6.60;99.90
85456;DHT22;75846;43.732;10.404;2024-03-08T04:05:22;6.60;99.90
85456;DHT22;75846;43.732;10.404;2024-03-08T04:07:49;6.60;99.90
85456;DHT22;75846;43.732;10.404;2024-03-08T04:10:16;6.60;99.90
85456;DHT22;75846;43.732;10.404;2024-03-08T04:12:44;6.60;99.90
85456;DHT22;75846;43.732;10.404;2024-03-08T04:15:12;6.50;99.90
85456;DHT22;75846;43.732;10.404;2024-03-08T04:17:39;6.50;99.90
85456;DHT22;75846;43.732;10.404;2024-03-08T04:20:07;6.40;99.90
85456;DHT22;75846;43.732;10.404;2024-03-08T04:22:37;6.40;99.90
85456;DHT22;75846;43.732;10.404;2024-03-08T04:25:06;6.40;99.90
85456;DHT22;75846;43.732;10.404;2024-03-08T04:27:33;6.40;99.90
85456;DHT22;75846;43.732;10.404;2024-03-08T04:30:01;6.40;99.90
85456;DHT22;75846;43.732;10.404;2024-03-08T04:32:28;6.40;99.90
85456;DHT22;75846;43.732;10.404;2024-03-08T04:34:58;6.40;99.90
85456;DHT22;75846;43.732;10.404;2024-03-08T04:37:27;6.30;99.90
85456;DHT22;75846;43.732;10.404;2024-03-08T04:39:56;6.40;99.90
85456;DHT22;75846;43.732;10.404;2024-03-08T04:42:24;6.40;99.90
85456;DHT22;75846;43.732;10.404;2024-03-08T04:44:52;6.40;99.90
85456;DHT22;75846;43.732;10.404;2024-03-08T04:47:19;6.40;99.90
85456;DHT22;75846;43.732;10.404;2024-03-08T04:49:46;6.40;99.90
85456;DHT22;75846;43.732;10.404;2024-03-08T04:52:14;6.50;99.90
85456;DHT22;75846;43.732;10.404;2024-03-08T04:54:41;6.50;99.90
85456;DHT22;75846;43.732;10.404;2024-03-08T04:57:10;6.50;99.90
85456;DHT22;75846;43.732;10.404;2024-03-08T04:59:39;6.50;99.90
85456;DHT22;75846;43.732;10.404;2024-03-08T05:02:06;6.50;99.90
85456;DHT22;75846;43.732;10.404;2024-03-08T05:04:34;6.60;99.90
85456;DHT22;75846;43.732;10.404;2024-03-08T05:07:01;6.60;99.90
85456;DHT22;75846;43.732;10.404;2024-03-08T05:09:29;6.60;99.90
85456;DHT22;75846;43.732;10.404;2024-03-08T05:11:57;6.60;99.90
85456;DHT22;75846;43.732;10.404;2024-03-08T05:14:27;6.50;99.90
85456;DHT22;75846;43.732;10.404;2024-03-08T05:16:54;6.60;99.90
85456;DHT22;75846;43.732;10.404;2024-03-08T05:19:21;6.60;99.90
85456;DHT22;75846;43.732;10.404;2024-03-08T05:21:49;6.70;99.90
85456;DHT22;75846;43.732;10.404;2024-03-08T05:24:17;6.60;99.90
85456;DHT22;75846;43.732;10.404;2024-03-08T05:26:45;6.50;99.90
85456;DHT22;75846;43.732;10.404;2024-03-08T05:29:13;6.50;99.90
85456;DHT22;75846;43.732;10.404;2024-03-08T05:31:47;6.50;99.90
85456;DHT22;75846;43.732;10.404;2024-03-08T05:34:15;6.30;99.90
85456;DHT22;75846;43.732;10.404;2024-03-08T05:36:42;6.30;99.90
85456;DHT22;75846;43.732;10.404;2024-03-08T05:39:10;6.40;99.90
85456;DHT22;75846;43.732;10.404;2024-03-08T05:41:38;6.30;99.90
85456;DHT22;75846;43.732;10.404;2024-03-08T05:44:06;6.30;99.90
85456;DHT22;75846;43.732;10.404;2024-03-08T05:46:34;6.20;99.90
85456;DHT22;75846;43.732;10.404;2024-03-08T05:49:03;6.20;99.90
85456;DHT22;75846;43.732;10.404;2024-03-08T05:51:31;6.30;99.90
85456;DHT22;75846;43.732;10.404;2024-03-08T05:54:00;6.40;99.90
85456;DHT22;75846;43.732;10.404;2024-03-08T05:56:28;6.30;99.90
85456;DHT22;75846;43.732;10.404;2024-03-08T05:58:56;6.30;99.90
85456;DHT22;75846;43.732;10.404;2024-03-08T06:01:23;6.30;99.90
85456;DHT22;75846;43.732;10.404;2024-03-08T06:03:52;6.40;99.90
85456;DHT22;75846;43.732;10.404;2024-03-08T06:06:23;6.50;99.90
85456;DHT22;75846;43.732;10.404;2024-03-08T06:08:51;6.50;99.90
85456;DHT22;75846;43.732;10.404;2024-03-08T06:11:19;6.60;99.90
85456;DHT22;75846;43.732;10.404;2024-03-08T06:13:47;6.60;99.90
85456;DHT22;75846;43.732;10.404;2024-03-08T06:16:15;6.70;99.90
85456;DHT22;75846;43.732;10.404;2024-03-08T06:18:43;6.80;99.90
85456;DHT22;75846;43.732;10.404;2024-03-08T06:21:10;6.80;99.90
85456;DHT22;75846;43.732;10.404;2024-03-08T06:23:39;6.90;99.90
85456;DHT22;75846;43.732;10.404;2024-03-08T06:26:08;6.90;99.90
85456;DHT22;75846;43.732;10.404;2024-03-08T06:28:35;6.90;99.90
85456;DHT22;75846;43.732;10.404;2024-03-08T06:31:03;7.00;99.90
85456;DHT22;75846;43.732;10.404;2024-03-08T06:33:30;7.10;99.90
85456;DHT22;75846;43.732;10.404;2024-03-08T06:35:58;7.10;99.90
85456;DHT22;75846;43.732;10.404;2024-03-08T06:38:25;7.10;99.90
85456;DHT22;75846;43.732;10.404;2024-03-08T06:40:54;7.10;99.90
85456;DHT22;75846;43.732;10.404;2024-03-08T06:43:22;7.20;99.90
85456;DHT22;75846;43.732;10.404;2024-03-08T06:45:50;7.30;99.90
85456;DHT22;75846;43.732;10.404;2024-03-08T06:48:18;7.30;99.90
85456;DHT22;75846;43.732;10.404;2024-03-08T06:50:47;7.30;99.90
85456;DHT22;75846;43.732;10.404;2024-03-08T06:53:14;7.40;99.90
85456;DHT22;75846;43.732;10.404;2024-03-08T06:55:44;7.40;99.90
85456;DHT22;75846;43.732;10.404;2024-03-08T06:58:13;7.50;99.90
85456;DHT22;75846;43.732;10.404;2024-03-08T07:00:42;7.60;99.90
85456;DHT22;75846;43.732;10.404;2024-03-08T07:03:10;7.80;99.90
85456;DHT22;75846;43.732;10.404;2024-03-08T07:05:38;8.00;99.90
85456;DHT22;75846;43.732;10.404;2024-03-08T07:08:06;8.10;99.90
85456;DHT22;75846;43.732;10.404;2024-03-08T07:10:33;8.30;99.90
85456;DHT22;75846;43.732;10.404;2024-03-08T07:13:00;8.50;99.90
85456;DHT22;75846;43.732;10.404;2024-03-08T07:15:30;8.70;99.90
85456;DHT22;75846;43.732;10.404;2024-03-08T07:17:58;9.10;99.90
85456;DHT22;75846;43.732;10.404;2024-03-08T07:20:26;9.40;99.90
85456;DHT22;75846;43.732;10.404;2024-03-08T07:22:54;10.00;99.90
85456;DHT22;75846;43.732;10.404;2024-03-08T07:25:22;10.40;99.90
85456;DHT22;75846;43.732;10.404;2024-03-08T07:27:51;11.00;99.90
85456;DHT22;75846;43.732;10.404;2024-03-08T07:30:18;11.60;99.90
85456;DHT22;75846;43.732;10.404;2024-03-08T07:33:05;12.10;99.90
85456;DHT22;75846;43.732;10.404;2024-03-08T07:35:33;12.40;99.90
85456;DHT22;75846;43.732;10.404;2024-03-08T07:38:03;12.50;99.90
85456;DHT22;75846;43.732;10.404;2024-03-08T07:40:31;12.90;99.90
85456;DHT22;75846;43.732;10.404;2024-03-08T07:42:59;13.20;99.90
85456;DHT22;75846;43.732;10.404;2024-03-08T07:45:26;13.40;99.90
85456;DHT22;75846;43.732;10.404;2024-03-08T07:47:53;13.80;99.90
85456;DHT22;75846;43.732;10.404;2024-03-08T07:50:23;14.00;99.90
85456;DHT22;75846;43.732;10.404;2024-03-08T07:52:50;14.10;99.90
85456;DHT22;75846;43.732;10.404;2024-03-08T07:55:17;14.00;99.90
85456;DHT22;75846;43.732;10.404;2024-03-08T07:57:45;14.40;99.90
85456;DHT22;75846;43.732;10.404;2024-03-08T08:00:14;15.00;99.90
85456;DHT22;75846;43.732;10.404;2024-03-08T08:02:44;15.20;99.90
85456;DHT22;75846;43.732;10.404;2024-03-08T08:05:12;15.50;99.90
85456;DHT22;75846;43.732;10.404;2024-03-08T08:07:44;15.70;99.90
85456;DHT22;75846;43.732;10.404;2024-03-08T08:10:12;15.70;99.90
85456;DHT22;75846;43.732;10.404;2024-03-08T08:12:44;15.70;99.90
85456;DHT22;75846;43.732;10.404;2024-03-08T08:15:12;15.70;99.90
85456;DHT22;75846;43.732;10.404;2024-03-08T08:17:41;16.00;99.90
85456;DHT22;75846;43.732;10.404;2024-03-08T08:20:09;15.90;99.90
85456;DHT22;75846;43.732;10.404;2024-03-08T08:22:37;15.30;99.90
85456;DHT22;75846;43.732;10.404;2024-03-08T08:25:07;16.10;99.90
85456;DHT22;75846;43.732;10.404;2024-03-08T08:27:35;16.40;99.90
85456;DHT22;75846;43.732;10.404;2024-03-08T08:30:04;16.90;99.90
85456;DHT22;75846;43.732;10.404;2024-03-08T08:32:34;17.10;99.90
85456;DHT22;75846;43.732;10.404;2024-03-08T08:35:02;17.70;99.90
85456;DHT22;75846;43.732;10.404;2024-03-08T08:37:30;17.50;99.90
85456;DHT22;75846;43.732;10.404;2024-03-08T08:39:57;17.50;99.90
85456;DHT22;75846;43.732;10.404;2024-03-08T08:42:29;17.10;99.90
85456;DHT22;75846;43.732;10.404;2024-03-08T08:44:56;17.10;99.90
85456;DHT22;75846;43.732;10.404;2024-03-08T08:47:23;16.90;99.90
85456;DHT22;75846;43.732;10.404;2024-03-08T08:49:51;17.40;99.90
85456;DHT22;75846;43.732;10.404;2024-03-08T08:52:18;17.70;99.90
85456;DHT22;75846;43.732;10.404;2024-03-08T08:54:46;17.40;99.90
85456;DHT22;75846;43.732;10.404;2024-03-08T08:57:13;17.20;99.90
85456;DHT22;75846;43.732;10.404;2024-03-08T08:59:42;17.50;99.90
85456;DHT22;75846;43.732;10.404;2024-03-08T09:02:09;17.60;99.90
85456;DHT22;75846;43.732;10.404;2024-03-08T09:04:36;18.10;99.90
85456;DHT22;75846;43.732;10.404;2024-03-08T09:07:04;18.30;99.90
85456;DHT22;75846;43.732;10.404;2024-03-08T09:09:32;18.00;99.90
85456;DHT22;75846;43.732;10.404;2024-03-08T09:12:01;17.70;99.90
85456;DHT22;75846;43.732;10.404;2024-03-08T09:14:28;17.90;99.90
85456;DHT22;75846;43.732;10.404;2024-03-08T09:16:57;18.30;99.90
85456;DHT22;75846;43.732;10.404;2024-03-08T09:19:24;18.20;99.90
85456;DHT22;75846;43.732;10.404;2024-03-08T09:21:51;18.20;99.90
85456;DHT22;75846;43.732;10.404;2024-03-08T09:24:19;18.20;99.90
85456;DHT22;75846;43.732;10.404;2024-03-08T09:26:46;18.20;99.90
85456;DHT22;75846;43.732;10.404;2024-03-08T09:29:14;18.60;99.90
85456;DHT22;75846;43.732;10.404;2024-03-08T09:31:42;18.90;99.90
85456;DHT22;75846;43.732;10.404;2024-03-08T09:34:10;19.20;99.90
85456;DHT22;75846;43.732;10.404;2024-03-08T09:36:37;19.00;99.90
85456;DHT22;75846;43.732;10.404;2024-03-08T09:39:07;19.00;99.90
85456;DHT22;75846;43.732;10.404;2024-03-08T09:41:34;19.00;99.90
85456;DHT22;75846;43.732;10.404;2024-03-08T09:44:01;19.40;99.90
85456;DHT22;75846;43.732;10.404;2024-03-08T09:46:30;19.00;99.90
85456;DHT22;75846;43.732;10.404;2024-03-08T09:48:58;19.10;99.90
85456;DHT22;75846;43.732;10.404;2024-03-08T09:51:29;19.50;99.90
85456;DHT22;75846;43.732;10.404;2024-03-08T09:53:57;20.10;99.60
85456;DHT22;75846;43.732;10.404;2024-03-08T09:56:25;19.80;98.50
85456;DHT22;75846;43.732;10.404;2024-03-08T09:58:53;19.90;99.30
85456;DHT22;75846;43.732;10.404;2024-03-08T10:01:40;20.10;98.80
85456;DHT22;75846;43.732;10.404;2024-03-08T10:04:08;20.50;98.20
85456;DHT22;75846;43.732;10.404;2024-03-08T10:06:37;20.40;97.40
85456;DHT22;75846;43.732;10.404;2024-03-08T10:09:04;20.90;97.70
85456;DHT22;75846;43.732;10.404;2024-03-08T10:11:34;21.70;96.90
85456;DHT22;75846;43.732;10.404;2024-03-08T10:14:01;21.60;96.00
85456;DHT22;75846;43.732;10.404;2024-03-08T10:16:29;21.70;95.50
85456;DHT22;75846;43.732;10.404;2024-03-08T10:18:56;22.70;95.60
85456;DHT22;75846;43.732;10.404;2024-03-08T10:21:24;23.10;95.10
85456;DHT22;75846;43.732;10.404;2024-03-08T10:23:53;23.40;93.40
85456;DHT22;75846;43.732;10.404;2024-03-08T10:26:20;23.30;93.30
85456;DHT22;75846;43.732;10.404;2024-03-08T10:28:48;23.00;93.70
85456;DHT22;75846;43.732;10.404;2024-03-08T10:31:16;22.80;93.30
85456;DHT22;75846;43.732;10.404;2024-03-08T10:33:45;22.30;92.30
85456;DHT22;75846;43.732;10.404;2024-03-08T10:36:13;22.60;93.50
85456;DHT22;75846;43.732;10.404;2024-03-08T10:38:42;23.50;92.00
85456;DHT22;75846;43.732;10.404;2024-03-08T10:41:14;22.80;92.20
85456;DHT22;75846;43.732;10.404;2024-03-08T10:44:10;23.10;92.40
85456;DHT22;75846;43.732;10.404;2024-03-08T10:46:48;24.20;91.20
85456;DHT22;75846;43.732;10.404;2024-03-08T10:49:25;25.20;90.30
85456;DHT22;75846;43.732;10.404;2024-03-08T10:51:53;25.30;90.10
85456;DHT22;75846;43.732;10.404;2024-03-08T10:54:20;23.70;86.80
85456;DHT22;75846;43.732;10.404;2024-03-08T10:56:49;23.30;90.80
85456;DHT22;75846;43.732;10.404;2024-03-08T10:59:18;23.70;89.70
85456;DHT22;75846;43.732;10.404;2024-03-08T11:01:46;24.30;88.00
85456;DHT22;75846;43.732;10.404;2024-03-08T11:04:13;24.00;89.00
85456;DHT22;75846;43.732;10.404;2024-03-08T11:06:42;23.00;89.40
85456;DHT22;75846;43.732;10.404;2024-03-08T11:09:27;23.40;88.80
85456;DHT22;75846;43.732;10.404;2024-03-08T11:12:21;23.50;90.00
85456;DHT22;75846;43.732;10.404;2024-03-08T11:14:51;23.90;87.20
85456;DHT22;75846;43.732;10.404;2024-03-08T11:17:38;23.70;87.10
85456;DHT22;75846;43.732;10.404;2024-03-08T11:20:10;23.40;86.40
85456;DHT22;75846;43.732;10.404;2024-03-08T11:22:42;24.30;86.80
85456;DHT22;75846;43.732;10.404;2024-03-08T11:25:32;26.00;84.80
85456;DHT22;75846;43.732;10.404;2024-03-08T11:28:23;26.90;85.00
85456;DHT22;75846;43.732;10.404;2024-03-08T11:31:24;27.50;78.60
85456;DHT22;75846;43.732;10.404;2024-03-08T11:33:53;27.70;79.40
85456;DHT22;75846;43.732;10.404;2024-03-08T11:36:24;28.80;78.40
85456;DHT22;75846;43.732;10.404;2024-03-08T11:38:51;29.90;74.50
85456;DHT22;75846;43.732;10.404;2024-03-08T11:41:23;29.30;72.40
85456;DHT22;75846;43.732;10.404;2024-03-08T11:44:03;29.90;71.60
85456;DHT22;75846;43.732;10.404;2024-03-08T11:46:32;29.60;71.90
85456;DHT22;75846;43.732;10.404;2024-03-08T11:49:00;30.10;71.60
85456;DHT22;75846;43.732;10.404;2024-03-08T11:51:27;28.90;72.50
85456;DHT22;75846;43.732;10.404;2024-03-08T11:53:56;27.70;70.90
85456;DHT22;75846;43.732;10.404;2024-03-08T11:56:23;26.80;74.40
85456;DHT22;75846;43.732;10.404;2024-03-08T11:58:55;25.50;74.20
85456;DHT22;75846;43.732;10.404;2024-03-08T12:01:23;24.30;78.40
85456;DHT22;75846;43.732;10.404;2024-03-08T12:03:53;23.80;78.50
85456;DHT22;75846;43.732;10.404;2024-03-08T12:06:20;22.80;81.20
85456;DHT22;75846;43.732;10.404;2024-03-08T12:08:47;21.90;82.70
85456;DHT22;75846;43.732;10.404;2024-03-08T12:11:17;21.00;84.00
85456;DHT22;75846;43.732;10.404;2024-03-08T12:13:49;19.70;85.60
85456;DHT22;75846;43.732;10.404;2024-03-08T12:16:18;19.00;89.50
85456;DHT22;75846;43.732;10.404;2024-03-08T12:18:47;18.50;90.60
85456;DHT22;75846;43.732;10.404;2024-03-08T12:21:15;18.30;91.00
85456;DHT22;75846;43.732;10.404;2024-03-08T12:23:46;18.00;91.10
85456;DHT22;75846;43.732;10.404;2024-03-08T12:26:18;17.90;92.40
85456;DHT22;75846;43.732;10.404;2024-03-08T12:28:50;17.80;92.40
85456;DHT22;75846;43.732;10.404;2024-03-08T12:31:19;17.50;92.80
85456;DHT22;75846;43.732;10.404;2024-03-08T12:33:50;17.40;93.10
85456;DHT22;75846;43.732;10.404;2024-03-08T12:36:18;17.20;93.70
85456;DHT22;75846;43.732;10.404;2024-03-08T12:38:46;17.40;94.80
85456;DHT22;75846;43.732;10.404;2024-03-08T12:41:14;18.00;94.60
85456;DHT22;75846;43.732;10.404;2024-03-08T12:43:41;18.30;95.40
85456;DHT22;75846;43.732;10.404;2024-03-08T12:46:08;18.60;93.40
85456;DHT22;75846;43.732;10.404;2024-03-08T12:48:37;18.40;92.40
85456;DHT22;75846;43.732;10.404;2024-03-08T12:51:06;18.20;93.90
85456;DHT22;75846;43.732;10.404;2024-03-08T12:53:34;18.30;94.70
85456;DHT22;75846;43.732;10.404;2024-03-08T12:56:02;18.10;95.00
85456;DHT22;75846;43.732;10.404;2024-03-08T12:58:33;17.70;93.90
85456;DHT22;75846;43.732;10.404;2024-03-08T13:01:02;17.50;93.40
85456;DHT22;75846;43.732;10.404;2024-03-08T13:03:30;17.40;94.60
85456;DHT22;75846;43.732;10.404;2024-03-08T13:05:59;17.50;94.10
85456;DHT22;75846;43.732;10.404;2024-03-08T13:08:26;17.60;93.70
85456;DHT22;75846;43.732;10.404;2024-03-08T13:10:55;18.00;94.20
85456;DHT22;75846;43.732;10.404;2024-03-08T13:13:23;18.10;93.30
85456;DHT22;75846;43.732;10.404;2024-03-08T13:15:50;18.10;93.50
85456;DHT22;75846;43.732;10.404;2024-03-08T13:18:19;18.10;93.20
85456;DHT22;75846;43.732;10.404;2024-03-08T13:20:47;18.00;91.90
85456;DHT22;75846;43.732;10.404;2024-03-08T13:23:19;17.80;94.20
85456;DHT22;75846;43.732;10.404;2024-03-08T13:25:46;17.60;94.10
85456;DHT22;75846;43.732;10.404;2024-03-08T13:28:14;17.40;94.70
85456;DHT22;75846;43.732;10.404;2024-03-08T13:30:42;17.40;94.70
85456;DHT22;75846;43.732;10.404;2024-03-08T13:33:10;17.20;94.10
85456;DHT22;75846;43.732;10.404;2024-03-08T13:35:37;17.20;93.90
85456;DHT22;75846;43.732;10.404;2024-03-08T13:38:06;17.00;94.60
85456;DHT22;75846;43.732;10.404;2024-03-08T13:40:36;16.80;94.30
85456;DHT22;75846;43.732;10.404;2024-03-08T13:43:04;16.60;94.70
85456;DHT22;75846;43.732;10.404;2024-03-08T13:45:33;16.50;94.50
85456;DHT22;75846;43.732;10.404;2024-03-08T13:47:59;16.40;95.80
85456;DHT22;75846;43.732;10.404;2024-03-08T13:50:27;16.40;95.60
85456;DHT22;75846;43.732;10.404;2024-03-08T13:52:55;16.30;95.40
85456;DHT22;75846;43.732;10.404;2024-03-08T13:55:22;16.20;97.00
85456;DHT22;75846;43.732;10.404;2024-03-08T13:57:52;16.20;97.10
85456;DHT22;75846;43.732;10.404;2024-03-08T14:00:20;16.10;96.40
85456;DHT22;75846;43.732;10.404;2024-03-08T14:02:49;16.10;97.40
85456;DHT22;75846;43.732;10.404;2024-03-08T14:05:16;16.10;96.70
85456;DHT22;75846;43.732;10.404;2024-03-08T14:07:45;16.00;99.10
85456;DHT22;75846;43.732;10.404;2024-03-08T14:10:15;16.00;97.40
85456;DHT22;75846;43.732;10.404;2024-03-08T14:12:43;16.00;98.00
85456;DHT22;75846;43.732;10.404;2024-03-08T14:15:11;15.90;99.10
85456;DHT22;75846;43.732;10.404;2024-03-08T14:17:39;15.80;97.40
85456;DHT22;75846;43.732;10.404;2024-03-08T14:20:07;15.70;97.60
85456;DHT22;75846;43.732;10.404;2024-03-08T14:22:35;15.60;99.90
85456;DHT22;75846;43.732;10.404;2024-03-08T14:25:02;15.50;99.90
85456;DHT22;75846;43.732;10.404;2024-03-08T14:27:31;15.50;99.90
85456;DHT22;75846;43.732;10.404;2024-03-08T14:29:59;15.60;99.90
85456;DHT22;75846;43.732;10.404;2024-03-08T14:32:27;15.70;99.90
85456;DHT22;75846;43.732;10.404;2024-03-08T14:34:55;15.70;99.90
85456;DHT22;75846;43.732;10.404;2024-03-08T14:37:22;15.70;99.90
85456;DHT22;75846;43.732;10.404;2024-03-08T14:39:54;15.60;99.90
85456;DHT22;75846;43.732;10.404;2024-03-08T14:42:22;15.50;99.90
85456;DHT22;75846;43.732;10.404;2024-03-08T14:44:49;15.40;99.90
85456;DHT22;75846;43.732;10.404;2024-03-08T14:47:18;15.30;99.90
85456;DHT22;75846;43.732;10.404;2024-03-08T14:49:46;15.30;99.90
85456;DHT22;75846;43.732;10.404;2024-03-08T14:52:14;15.10;99.90
85456;DHT22;75846;43.732;10.404;2024-03-08T14:54:54;14.90;99.90
85456;DHT22;75846;43.732;10.404;2024-03-08T14:57:21;14.70;99.90
85456;DHT22;75846;43.732;10.404;2024-03-08T14:59:49;14.70;99.90
85456;DHT22;75846;43.732;10.404;2024-03-08T15:02:16;14.60;99.90
85456;DHT22;75846;43.732;10.404;2024-03-08T15:04:48;14.60;99.90
85456;DHT22;75846;43.732;10.404;2024-03-08T15:07:23;14.60;99.90
85456;DHT22;75846;43.732;10.404;2024-03-08T15:09:51;14.40;99.90
85456;DHT22;75846;43.732;10.404;2024-03-08T15:12:19;14.10;99.90
85456;DHT22;75846;43.732;10.404;2024-03-08T15:14:47;14.00;99.90
85456;DHT22;75846;43.732;10.404;2024-03-08T15:17:17;14.10;99.90
85456;DHT22;75846;43.732;10.404;2024-03-08T15:19:48;14.20;99.90
85456;DHT22;75846;43.732;10.404;2024-03-08T15:22:16;14.00;99.90
85456;DHT22;75846;43.732;10.404;2024-03-08T15:24:44;14.00;99.90
85456;DHT22;75846;43.732;10.404;2024-03-08T15:27:11;14.10;99.90
85456;DHT22;75846;43.732;10.404;2024-03-08T15:29:39;14.10;99.90
85456;DHT22;75846;43.732;10.404;2024-03-08T15:32:06;14.00;99.90
85456;DHT22;75846;43.732;10.404;2024-03-08T15:34:35;14.00;99.90